Time;durP1;ratioP1;P1;durP2;ratioP2;P2;SDS_P1;SDS_P2;PMS_P1;PMS_P2;Temp;Humidity;BMP_temperature;BMP_pressure;BME280_temperature;BME280_humidity;BME280_pressure;Samples;Min_cycle;Max_cycle;Signal;HPM_P1;HPM_P2
2023/07/31 00:00:46;;;;;;;0.00;0.00;;;17.20;99.90;;;;;;5092548;28;20173;-66
2023/07/31 00:03:12;;;;;;;0.00;0.00;;;17.20;99.90;;;;;;5092579;28;20268;-66
2023/07/31 00:05:37;;;;;;;0.00;0.00;;;17.10;99.90;;;;;;5091161;28;20176;-67
2023/07/31 00:08:03;;;;;;;0.00;0.00;;;17.10;99.90;;;;;;5092520;28;20231;-66
2023/07/31 00:10:28;;;;;;;0.00;0.00;;;17.20;99.90;;;;;;5092417;28;20589;-66
2023/07/31 00:12:54;;;;;;;0.00;0.00;;;17.10;99.90;;;;;;5092227;28;20184;-66
2023/07/31 00:15:19;;;;;;;0.00;0.00;;;17.10;99.90;;;;;;5092412;28;20168;-66
2023/07/31 00:17:45;;;;;;;0.00;0.00;;;17.10;99.90;;;;;;5091093;28;20234;-67
2023/07/31 00:20:11;;;;;;;0.00;0.00;;;17.10;99.90;;;;;;5092120;28;20175;-67
2023/07/31 00:22:36;;;;;;;0.00;0.00;;;17.10;99.90;;;;;;5091930;28;20187;-67
2023/07/31 00:25:02;;;;;;;0.00;0.00;;;17.10;99.90;;;;;;5092479;28;20223;-67
2023/07/31 00:27:27;;;;;;;0.00;0.00;;;17.10;99.90;;;;;;5091827;28;20239;-67
2023/07/31 00:29:53;;;;;;;0.00;0.00;;;17.10;99.90;;;;;;5092274;28;20168;-66
2023/07/31 00:32:18;;;;;;;0.00;0.00;;;17.10;99.90;;;;;;5091944;28;20180;-67
2023/07/31 00:34:44;;;;;;;0.00;0.00;;;17.20;99.90;;;;;;5092036;28;20176;-67
2023/07/31 00:37:10;;;;;;;0.00;0.00;;;17.20;99.90;;;;;;5090996;28;20674;-67
2023/07/31 00:39:35;;;;;;;0.00;0.00;;;17.20;99.90;;;;;;5091720;28;20185;-67
2023/07/31 00:42:03;;;;;;;0.00;0.00;;;17.20;99.90;;;;;;5090171;28;20183;-67
2023/07/31 00:44:28;;;;;;;0.00;0.00;;;17.20;99.90;;;;;;5090353;28;20176;-67
2023/07/31 00:46:55;;;;;;;0.00;0.00;;;17.20;99.90;;;;;;5091880;28;20550;-67
2023/07/31 00:49:22;;;;;;;0.00;0.00;;;17.20;99.90;;;;;;5090345;28;20180;-66
2023/07/31 00:51:48;;;;;;;0.00;0.00;;;17.10;99.90;;;;;;5091686;28;20255;-67
2023/07/31 00:54:13;;;;;;;0.00;0.00;;;17.10;99.90;;;;;;5091608;28;20279;-66
2023/07/31 00:56:41;;;;;;;0.00;0.00;;;17.00;99.90;;;;;;5091665;28;20183;-66
2023/07/31 00:59:06;;;;;;;0.00;0.00;;;17.00;99.90;;;;;;5091618;28;20183;-66
2023/07/31 01:01:32;;;;;;;0.00;0.00;;;17.00;99.90;;;;;;5091567;28;20172;-67
2023/07/31 01:03:57;;;;;;;0.00;0.00;;;16.90;99.90;;;;;;5091705;28;20178;-67
2023/07/31 01:06:45;;;;;;;0.00;0.00;;;16.90;99.90;;;;;;5073511;28;20169;-66
2023/07/31 01:09:33;;;;;;;0.00;0.00;;;16.90;99.90;;;;;;5091472;28;20180;-67
2023/07/31 01:12:03;;;;;;;0.00;0.00;;;16.90;99.90;;;;;;5091575;28;20237;-66
2023/07/31 01:14:29;;;;;;;0.00;0.00;;;16.90;99.90;;;;;;5091537;28;20266;-67
2023/07/31 01:16:55;;;;;;;0.00;0.00;;;16.90;99.90;;;;;;5091462;28;20211;-66
2023/07/31 01:19:27;;;;;;;0.00;0.00;;;16.90;99.90;;;;;;5091466;28;20718;-67
2023/07/31 01:22:23;;;;;;;0.00;0.00;;;16.90;99.90;;;;;;5075612;28;20164;-67
2023/07/31 01:25:07;;;;;;;0.00;0.00;;;16.90;99.90;;;;;;5090326;28;20191;-66
2023/07/31 01:27:40;;;;;;;0.00;0.00;;;16.90;99.90;;;;;;5090975;28;20623;-66
2023/07/31 01:30:14;;;;;;;0.00;0.00;;;16.90;99.90;;;;;;5089942;28;20223;-67
2023/07/31 01:32:42;;;;;;;0.00;0.00;;;16.90;99.90;;;;;;5091211;28;20226;-67
2023/07/31 01:35:08;;;;;;;0.00;0.00;;;16.80;99.90;;;;;;5091020;28;20187;-67
2023/07/31 01:37:34;;;;;;;0.00;0.00;;;16.80;99.90;;;;;;5089624;28;20207;-66
2023/07/31 01:40:00;;;;;;;0.00;0.00;;;16.80;99.90;;;;;;5090892;28;20199;-67
2023/07/31 01:42:25;;;;;;;0.00;0.00;;;16.90;99.90;;;;;;5090495;28;20326;-66
2023/07/31 01:44:51;;;;;;;0.00;0.00;;;16.90;99.90;;;;;;5090788;28;20188;-67
2023/07/31 01:47:16;;;;;;;0.00;0.00;;;16.90;99.90;;;;;;5090380;28;20545;-67
2023/07/31 01:49:42;;;;;;;0.00;0.00;;;16.90;99.90;;;;;;5072892;28;20780;-67
2023/07/31 01:52:07;;;;;;;0.00;0.00;;;16.90;99.90;;;;;;5091052;28;20182;-66
2023/07/31 01:54:33;;;;;;;0.00;0.00;;;16.90;99.90;;;;;;5091157;28;20176;-67
2023/07/31 01:56:59;;;;;;;0.00;0.00;;;16.90;99.90;;;;;;5090998;28;20200;-67
2023/07/31 01:59:24;;;;;;;0.00;0.00;;;16.90;99.90;;;;;;5091036;28;20280;-66
2023/07/31 02:01:50;;;;;;;0.00;0.00;;;16.90;99.90;;;;;;5094500;28;20176;-67
2023/07/31 02:04:16;;;;;;;0.00;0.00;;;16.90;99.90;;;;;;5094491;28;20176;-66
2023/07/31 02:06:41;;;;;;;0.00;0.00;;;16.90;99.90;;;;;;5094881;28;20639;-67
2023/07/31 02:09:07;;;;;;;0.00;0.00;;;16.90;99.90;;;;;;5093375;28;20690;-66
2023/07/31 02:11:32;;;;;;;0.00;0.00;;;16.90;99.90;;;;;;5094665;28;20756;-66
2023/07/31 02:13:58;;;;;;;0.00;0.00;;;16.90;99.90;;;;;;5094647;28;20180;-67
2023/07/31 02:16:23;;;;;;;0.00;0.00;;;16.90;99.90;;;;;;5093254;28;20255;-67
2023/07/31 02:18:49;;;;;;;0.00;0.00;;;16.90;99.90;;;;;;5094646;28;20227;-66
2023/07/31 02:21:14;;;;;;;0.00;0.00;;;16.80;99.90;;;;;;5094270;28;20187;-67
2023/07/31 02:23:40;;;;;;;0.00;0.00;;;16.90;99.90;;;;;;5094397;28;20682;-67
2023/07/31 02:26:06;;;;;;;0.00;0.00;;;16.90;99.90;;;;;;5094554;28;20635;-67
2023/07/31 02:28:31;;;;;;;0.00;0.00;;;16.90;99.90;;;;;;5093366;28;20228;-66
2023/07/31 02:30:57;;;;;;;0.00;0.00;;;16.80;99.90;;;;;;5094211;28;20215;-66
2023/07/31 02:33:22;;;;;;;0.00;0.00;;;16.90;99.90;;;;;;5094389;28;20172;-67
2023/07/31 02:35:48;;;;;;;0.00;0.00;;;16.80;99.90;;;;;;5094304;28;20263;-67
2023/07/31 02:38:13;;;;;;;0.00;0.00;;;16.80;99.90;;;;;;5094255;28;20226;-67
2023/07/31 02:40:41;;;;;;;0.00;0.00;;;16.80;99.90;;;;;;5093962;28;20168;-67
2023/07/31 02:43:07;;;;;;;0.00;0.00;;;16.90;99.90;;;;;;5094177;28;20187;-67
2023/07/31 02:45:32;;;;;;;0.00;0.00;;;16.80;99.90;;;;;;5093755;28;20169;-66
2023/07/31 02:47:58;;;;;;;0.00;0.00;;;16.80;99.90;;;;;;5094022;28;20282;-66
2023/07/31 02:50:23;;;;;;;0.00;0.00;;;16.80;99.90;;;;;;5093905;28;20225;-66
2023/07/31 02:52:49;;;;;;;0.00;0.00;;;16.80;99.90;;;;;;5094048;28;20558;-65
2023/07/31 02:55:14;;;;;;;0.00;0.00;;;16.90;99.90;;;;;;5093730;28;20188;-66
2023/07/31 02:57:40;;;;;;;0.00;0.00;;;16.90;99.90;;;;;;5093664;28;20222;-66
2023/07/31 03:00:06;;;;;;;0.00;0.00;;;16.90;99.90;;;;;;5093453;28;20180;-66
2023/07/31 03:02:32;;;;;;;0.00;0.00;;;16.90;99.90;;;;;;5093204;28;20234;-66
2023/07/31 03:04:58;;;;;;;0.00;0.00;;;16.80;99.90;;;;;;5093040;28;20567;-66
2023/07/31 03:07:23;;;;;;;0.00;0.00;;;16.80;99.90;;;;;;5093376;28;20187;-66
2023/07/31 03:09:49;;;;;;;0.00;0.00;;;16.80;99.90;;;;;;5093102;28;20188;-66
2023/07/31 03:12:15;;;;;;;0.00;0.00;;;16.80;99.90;;;;;;5092772;28;20262;-66
2023/07/31 03:14:40;;;;;;;0.00;0.00;;;16.80;99.90;;;;;;5093313;28;20180;-66
2023/07/31 03:17:06;;;;;;;0.00;0.00;;;16.80;99.90;;;;;;5092639;28;20249;-66
2023/07/31 03:19:32;;;;;;;0.00;0.00;;;16.80;99.90;;;;;;5092320;28;20237;-66
2023/07/31 03:21:58;;;;;;;0.00;0.00;;;16.70;99.90;;;;;;5091999;28;20168;-67
2023/07/31 03:24:24;;;;;;;0.00;0.00;;;16.70;99.90;;;;;;5093055;28;20200;-66
2023/07/31 03:26:50;;;;;;;0.00;0.00;;;16.60;99.90;;;;;;5091990;28;20234;-66
2023/07/31 03:29:15;;;;;;;0.00;0.00;;;16.60;99.90;;;;;;5092290;28;20324;-67
2023/07/31 03:31:41;;;;;;;0.00;0.00;;;16.60;99.90;;;;;;5093399;28;20178;-66
2023/07/31 03:34:06;;;;;;;0.00;0.00;;;16.60;99.90;;;;;;5092941;28;20191;-66
2023/07/31 03:36:32;;;;;;;0.00;0.00;;;16.50;99.90;;;;;;5092670;28;20169;-67
2023/07/31 03:38:58;;;;;;;0.00;0.00;;;16.50;99.90;;;;;;5092509;28;20216;-67
2023/07/31 03:41:23;;;;;;;0.00;0.00;;;16.50;99.90;;;;;;5092278;28;20172;-68
2023/07/31 03:43:55;;;;;;;0.00;0.00;;;16.50;99.90;;;;;;5092247;28;20202;-67
2023/07/31 03:46:22;;;;;;;0.00;0.00;;;16.50;99.90;;;;;;5092235;28;20172;-69
2023/07/31 03:48:48;;;;;;;0.00;0.00;;;16.50;99.90;;;;;;5092711;28;20176;-68
2023/07/31 03:51:13;;;;;;;0.00;0.00;;;16.40;99.90;;;;;;5092527;28;20180;-67
2023/07/31 03:53:39;;;;;;;0.00;0.00;;;16.40;99.90;;;;;;5092798;28;20325;-68
2023/07/31 03:56:04;;;;;;;0.00;0.00;;;16.40;99.90;;;;;;5092303;28;20192;-67
2023/07/31 03:58:30;;;;;;;0.13;0.13;;;16.40;99.90;;;;;;5092253;28;20215;-70
2023/07/31 04:00:55;;;;;;;0.00;0.00;;;16.40;99.90;;;;;;5091748;28;20173;-73
2023/07/31 04:03:21;;;;;;;0.00;0.00;;;16.30;99.90;;;;;;5092548;28;20180;-68
2023/07/31 04:05:46;;;;;;;0.00;0.00;;;16.30;99.90;;;;;;5091861;28;20180;-68
2023/07/31 04:08:12;;;;;;;0.00;0.00;;;16.30;99.90;;;;;;5092306;28;20546;-67
2023/07/31 04:10:37;;;;;;;0.00;0.00;;;16.30;99.90;;;;;;5091882;28;20631;-69
2023/07/31 04:13:03;;;;;;;0.00;0.00;;;16.40;99.90;;;;;;5092772;28;20846;-70
2023/07/31 04:15:28;;;;;;;0.00;0.00;;;16.40;99.90;;;;;;5092828;28;20187;-70
2023/07/31 04:17:54;;;;;;;0.20;0.20;;;16.40;99.90;;;;;;5092383;28;20273;-70
2023/07/31 04:20:19;;;;;;;0.00;0.00;;;16.40;99.90;;;;;;5092334;28;20168;-70
2023/07/31 04:22:45;;;;;;;0.00;0.00;;;16.40;99.90;;;;;;5086524;28;20287;-70
2023/07/31 04:25:10;;;;;;;0.00;0.00;;;16.50;99.90;;;;;;5091760;28;20178;-70
2023/07/31 04:27:36;;;;;;;0.00;0.00;;;16.50;99.90;;;;;;5092395;28;20409;-70
2023/07/31 04:30:02;;;;;;;0.00;0.00;;;16.60;99.90;;;;;;5092070;28;20233;-70
2023/07/31 04:32:28;;;;;;;0.00;0.00;;;16.60;99.90;;;;;;5090664;28;20172;-69
2023/07/31 04:34:54;;;;;;;0.00;0.00;;;16.60;99.90;;;;;;5091925;28;20164;-70
2023/07/31 04:37:19;;;;;;;0.00;0.00;;;16.70;99.90;;;;;;5090822;28;20196;-70
2023/07/31 04:39:45;;;;;;;0.00;0.00;;;16.70;99.90;;;;;;5091872;28;20263;-70
2023/07/31 04:42:10;;;;;;;0.00;0.00;;;16.70;99.90;;;;;;5091606;28;20183;-70
2023/07/31 04:44:36;;;;;;;0.00;0.00;;;16.80;99.90;;;;;;5091589;28;20767;-70
2023/07/31 04:47:02;;;;;;;0.00;0.00;;;16.80;99.90;;;;;;5091411;28;20709;-70
2023/07/31 04:49:27;;;;;;;0.00;0.00;;;16.80;99.90;;;;;;5091514;28;20164;-70
2023/07/31 04:51:53;;;;;;;0.00;0.00;;;16.80;99.90;;;;;;5091504;28;20539;-70
2023/07/31 04:54:18;;;;;;;0.00;0.00;;;16.80;99.90;;;;;;5091398;28;20266;-70
2023/07/31 04:56:44;;;;;;;0.00;0.00;;;16.90;99.90;;;;;;5091359;28;20172;-70
2023/07/31 04:59:09;;;;;;;0.00;0.00;;;16.90;99.90;;;;;;5091040;28;20240;-70
2023/07/31 05:01:35;;;;;;;0.00;0.00;;;16.90;99.90;;;;;;5091309;28;20176;-70
2023/07/31 05:04:00;;;;;;;0.00;0.00;;;16.90;99.90;;;;;;5091291;28;20179;-70
2023/07/31 05:06:26;;;;;;;0.00;0.00;;;17.00;99.90;;;;;;5089949;28;20712;-70
2023/07/31 05:08:52;;;;;;;0.20;0.20;;;17.00;99.90;;;;;;5091311;28;20273;-70
2023/07/31 05:11:17;;;;;;;0.22;0.22;;;17.00;99.90;;;;;;5089940;28;20176;-71
2023/07/31 05:13:43;;;;;;;0.00;0.00;;;17.10;99.90;;;;;;5091222;28;20172;-70
2023/07/31 05:16:08;;;;;;;0.00;0.00;;;17.10;99.90;;;;;;5090934;28;20183;-70
2023/07/31 05:18:34;;;;;;;0.00;0.00;;;17.10;99.90;;;;;;5091682;28;20212;-70
2023/07/31 05:20:59;;;;;;;0.00;0.00;;;17.20;99.90;;;;;;5091359;28;20176;-70
2023/07/31 05:23:25;;;;;;;0.00;0.00;;;17.20;99.90;;;;;;5090909;28;20638;-70
2023/07/31 05:25:50;;;;;;;0.00;0.00;;;17.30;99.90;;;;;;5089637;28;20702;-70
2023/07/31 05:28:16;;;;;;;0.00;0.00;;;17.30;99.90;;;;;;5090488;28;20310;-70
2023/07/31 05:30:41;;;;;;;0.00;0.00;;;17.40;99.90;;;;;;5089330;28;20160;-70
2023/07/31 05:33:07;;;;;;;0.00;0.00;;;17.50;99.90;;;;;;5090726;28;20184;-70
2023/07/31 05:35:32;;;;;;;0.00;0.00;;;17.60;99.90;;;;;;5092014;28;20217;-68
2023/07/31 05:37:58;;;;;;;0.00;0.00;;;17.60;99.90;;;;;;5094882;28;20248;-68
2023/07/31 05:40:23;;;;;;;0.00;0.00;;;17.80;99.90;;;;;;5093548;28;20192;-68
2023/07/31 05:42:49;;;;;;;0.00;0.00;;;17.80;99.90;;;;;;5094767;28;20225;-68
2023/07/31 05:45:14;;;;;;;0.00;0.00;;;17.80;99.90;;;;;;5094674;28;20192;-68
2023/07/31 05:47:40;;;;;;;0.00;0.00;;;17.90;99.90;;;;;;5094765;28;20179;-68
2023/07/31 05:50:06;;;;;;;0.00;0.00;;;17.90;99.90;;;;;;5094696;28;20176;-68
2023/07/31 05:52:31;;;;;;;0.00;0.00;;;18.00;99.90;;;;;;5094579;28;20172;-68
2023/07/31 05:54:57;;;;;;;0.00;0.00;;;18.20;99.90;;;;;;5094683;28;20183;-68
2023/07/31 05:57:22;;;;;;;0.00;0.00;;;18.40;99.90;;;;;;5094520;28;20655;-68
2023/07/31 05:59:48;;;;;;;0.00;0.00;;;18.50;99.90;;;;;;5094456;28;20583;-69
2023/07/31 06:02:14;;;;;;;0.00;0.00;;;18.90;99.90;;;;;;5094478;28;20207;-68
2023/07/31 06:04:39;;;;;;;0.00;0.00;;;19.40;99.90;;;;;;5094577;28;20171;-68
2023/07/31 06:07:05;;;;;;;0.00;0.00;;;19.50;99.90;;;;;;5094526;28;20533;-68
2023/07/31 06:09:30;;;;;;;0.00;0.00;;;19.60;99.90;;;;;;5094337;28;20712;-68
2023/07/31 06:11:56;;;;;;;0.00;0.00;;;19.50;99.90;;;;;;5094505;28;20688;-68
2023/07/31 06:14:22;;;;;;;0.00;0.00;;;19.50;99.90;;;;;;5094231;28;20184;-68
2023/07/31 06:16:47;;;;;;;0.00;0.00;;;19.30;99.90;;;;;;5094250;28;20169;-68
2023/07/31 06:19:13;;;;;;;0.00;0.00;;;19.20;99.90;;;;;;5094261;28;20582;-68
2023/07/31 06:21:38;;;;;;;0.00;0.00;;;19.20;99.90;;;;;;5094296;28;20658;-68
2023/07/31 06:24:05;;;;;;;0.00;0.00;;;19.20;99.90;;;;;;5094315;28;20545;-68
2023/07/31 06:26:31;;;;;;;0.00;0.00;;;19.10;99.90;;;;;;5094398;28;20624;-68
2023/07/31 06:28:56;;;;;;;0.00;0.00;;;19.20;99.90;;;;;;5093335;28;20277;-68
2023/07/31 06:31:22;;;;;;;0.00;0.00;;;19.20;99.90;;;;;;5093099;28;20176;-69
2023/07/31 06:33:52;;;;;;;0.00;0.00;;;19.20;99.90;;;;;;5093029;28;20214;-68
2023/07/31 06:36:18;;;;;;;0.00;0.00;;;19.30;99.90;;;;;;5093120;28;20237;-68
2023/07/31 06:38:43;;;;;;;0.00;0.00;;;19.50;99.90;;;;;;5093046;28;20215;-68
2023/07/31 06:41:10;;;;;;;0.00;0.00;;;19.60;99.90;;;;;;5092642;28;20168;-68
2023/07/31 06:43:36;;;;;;;0.00;0.00;;;19.80;99.70;;;;;;5093043;28;20267;-68
2023/07/31 06:46:07;;;;;;;0.00;0.00;;;20.00;99.50;;;;;;5092443;28;20252;-68
2023/07/31 06:48:34;;;;;;;0.00;0.00;;;20.10;99.20;;;;;;5092822;28;20184;-68
2023/07/31 06:51:00;;;;;;;0.00;0.00;;;20.30;99.30;;;;;;5092943;28;20182;-68
2023/07/31 06:53:26;;;;;;;0.00;0.00;;;20.40;98.60;;;;;;5091600;28;20180;-68
2023/07/31 06:55:51;;;;;;;0.00;0.00;;;20.30;98.00;;;;;;5092749;28;20659;-68
2023/07/31 06:58:17;;;;;;;0.00;0.00;;;20.30;98.60;;;;;;5092672;28;20277;-68
2023/07/31 07:00:43;;;;;;;0.00;0.00;;;20.20;98.40;;;;;;5092689;28;20685;-68
2023/07/31 07:03:08;;;;;;;0.00;0.00;;;20.20;98.70;;;;;;5092496;28;20180;-67
2023/07/31 07:05:34;;;;;;;0.00;0.00;;;20.10;98.70;;;;;;5092764;28;20908;-68
2023/07/31 07:08:00;;;;;;;0.00;0.00;;;20.10;98.90;;;;;;5092604;28;20308;-68
2023/07/31 07:10:25;;;;;;;0.00;0.00;;;20.10;99.40;;;;;;5092519;28;20168;-68
2023/07/31 07:12:51;;;;;;;0.00;0.00;;;20.00;99.10;;;;;;5091126;28;20172;-68
2023/07/31 07:15:16;;;;;;;0.00;0.00;;;20.00;99.40;;;;;;5092425;28;20271;-68
2023/07/31 07:17:42;;;;;;;0.00;0.00;;;20.00;99.70;;;;;;5092445;28;20212;-68
2023/07/31 07:20:08;;;;;;;0.00;0.00;;;20.00;99.80;;;;;;5092408;28;20184;-68
2023/07/31 07:22:33;;;;;;;0.00;0.00;;;20.10;99.80;;;;;;5092215;28;20590;-68
2023/07/31 07:24:59;;;;;;;0.00;0.00;;;20.30;99.30;;;;;;5092468;28;20646;-68
2023/07/31 07:27:24;;;;;;;0.10;0.10;;;20.40;99.40;;;;;;5054528;28;1037697;-68
2023/07/31 07:29:52;;;;;;;0.00;0.00;;;20.60;99.50;;;;;;5093182;28;20181;-68
2023/07/31 07:32:18;;;;;;;0.00;0.00;;;20.70;99.10;;;;;;5093199;28;20172;-68
2023/07/31 07:34:43;;;;;;;0.00;0.00;;;20.70;98.70;;;;;;5093299;28;20172;-68
2023/07/31 07:37:09;;;;;;;0.00;0.00;;;21.00;98.50;;;;;;5092959;28;20191;-68
2023/07/31 07:39:34;;;;;;;0.00;0.00;;;21.10;98.40;;;;;;5093084;28;20190;-68
2023/07/31 07:42:00;;;;;;;0.00;0.00;;;21.20;98.40;;;;;;5092909;28;20177;-68
2023/07/31 07:44:26;;;;;;;0.00;0.00;;;21.40;97.90;;;;;;5093067;28;20666;-68
2023/07/31 07:46:52;;;;;;;0.00;0.00;;;21.50;98.00;;;;;;5072529;28;20173;-68
2023/07/31 07:49:18;;;;;;;0.00;0.00;;;21.90;98.50;;;;;;5072744;28;20173;-68
2023/07/31 07:51:43;;;;;;;0.00;0.00;;;22.30;97.10;;;;;;5072510;28;20208;-68
2023/07/31 07:54:09;;;;;;;0.00;0.00;;;22.50;96.40;;;;;;5071130;28;20177;-68
2023/07/31 07:56:36;;;;;;;0.00;0.00;;;22.70;96.40;;;;;;5072486;28;20188;-68
2023/07/31 07:59:01;;;;;;;0.00;0.00;;;22.70;95.30;;;;;;5071519;28;20244;-68
2023/07/31 08:01:27;;;;;;;0.00;0.00;;;22.60;95.60;;;;;;5072308;28;20200;-68
2023/07/31 08:03:53;;;;;;;0.00;0.00;;;22.40;94.60;;;;;;5072335;28;20177;-67
2023/07/31 08:06:18;;;;;;;0.00;0.00;;;22.40;95.00;;;;;;5072278;28;20176;-68
2023/07/31 08:08:44;;;;;;;0.00;0.00;;;22.30;95.40;;;;;;5072241;28;20626;-67
2023/07/31 08:11:09;;;;;;;0.00;0.00;;;22.20;95.60;;;;;;5072220;28;20659;-67
2023/07/31 08:13:36;;;;;;;0.00;0.00;;;22.20;95.40;;;;;;5087776;28;20177;-67
2023/07/31 08:16:02;;;;;;;0.00;0.00;;;22.10;95.30;;;;;;5072227;28;20169;-68
2023/07/31 08:18:28;;;;;;;0.00;0.00;;;22.10;95.00;;;;;;5071945;28;20204;-67
2023/07/31 08:20:53;;;;;;;0.00;0.00;;;21.90;94.90;;;;;;5072138;28;20173;-67
2023/07/31 08:23:19;;;;;;;0.00;0.00;;;21.70;94.80;;;;;;5078309;28;20207;-67
2023/07/31 08:25:45;;;;;;;0.00;0.00;;;21.70;95.50;;;;;;5092307;28;20168;-67
2023/07/31 08:28:10;;;;;;;0.00;0.00;;;21.60;95.50;;;;;;5091784;28;20726;-68
2023/07/31 08:30:36;;;;;;;0.00;0.00;;;21.50;95.40;;;;;;5092276;28;20215;-67
2023/07/31 08:33:02;;;;;;;0.00;0.00;;;21.50;95.60;;;;;;5092161;28;20621;-67
2023/07/31 08:35:28;;;;;;;0.00;0.00;;;21.50;95.90;;;;;;5091988;28;20238;-68
2023/07/31 08:37:54;;;;;;;0.00;0.00;;;21.50;96.00;;;;;;5092093;28;20306;-67
2023/07/31 08:40:21;;;;;;;0.00;0.00;;;21.60;96.00;;;;;;5090594;28;20169;-67
2023/07/31 08:42:48;;;;;;;0.00;0.00;;;21.50;95.80;;;;;;5091957;28;20573;-68
2023/07/31 08:45:18;;;;;;;0.00;0.00;;;21.50;95.50;;;;;;5091608;28;20698;-68
2023/07/31 08:47:49;;;;;;;0.00;0.00;;;21.50;96.00;;;;;;5091930;28;20226;-68
2023/07/31 08:50:19;;;;;;;0.00;0.00;;;21.50;96.10;;;;;;5091809;28;20643;-68
2023/07/31 08:52:47;;;;;;;0.00;0.00;;;21.60;96.20;;;;;;5091739;28;20171;-68
2023/07/31 08:55:13;;;;;;;0.00;0.00;;;21.80;96.40;;;;;;5091733;28;20172;-68
2023/07/31 08:57:39;;;;;;;0.10;0.10;;;21.90;95.90;;;;;;5091707;28;20265;-67
2023/07/31 09:00:06;;;;;;;0.00;0.00;;;22.00;95.60;;;;;;5091680;28;20651;-68
2023/07/31 09:02:39;;;;;;;0.00;0.00;;;22.00;95.20;;;;;;5091672;28;20168;-68
2023/07/31 09:05:07;;;;;;;0.00;0.00;;;22.00;95.50;;;;;;5091616;28;20172;-68
2023/07/31 09:07:35;;;;;;;0.00;0.00;;;22.20;95.00;;;;;;5091591;28;20175;-68
2023/07/31 09:10:00;;;;;;;0.00;0.00;;;22.40;95.20;;;;;;5090204;28;20199;-67
2023/07/31 09:12:26;;;;;;;0.00;0.00;;;22.50;94.60;;;;;;5090299;28;20222;-68
2023/07/31 09:14:51;;;;;;;0.00;0.00;;;22.60;93.90;;;;;;5091425;28;20176;-67
2023/07/31 09:17:29;;;;;;;0.00;0.00;;;22.60;93.90;;;;;;5091316;28;20711;-68
2023/07/31 09:19:55;;;;;;;0.00;0.00;;;22.60;93.80;;;;;;5091473;28;20278;-67
2023/07/31 09:22:32;;;;;;;0.00;0.00;;;22.60;93.30;;;;;;5086618;28;20591;-68
2023/07/31 09:25:19;;;;;;;0.00;0.00;;;22.80;93.10;;;;;;5071260;28;20180;-67
2023/07/31 09:27:57;;;;;;;0.00;0.00;;;22.90;93.20;;;;;;5071047;28;20216;-67
2023/07/31 09:30:23;;;;;;;0.00;0.00;;;23.10;92.40;;;;;;5071295;28;20184;-67
2023/07/31 09:32:49;;;;;;;0.00;0.00;;;23.30;92.40;;;;;;5071026;28;20181;-67
2023/07/31 09:35:20;;;;;;;0.00;0.00;;;23.80;92.00;;;;;;5071074;28;20659;-68
2023/07/31 09:37:54;;;;;;;0.00;0.00;;;24.20;91.40;;;;;;5071103;28;20251;-67
2023/07/31 09:40:34;;;;;;;0.00;0.00;;;24.40;90.50;;;;;;5082419;28;20267;-67
2023/07/31 09:43:01;;;;;;;0.00;0.00;;;24.80;91.00;;;;;;5091200;28;20187;-68
2023/07/31 09:45:27;;;;;;;0.00;0.00;;;25.10;90.50;;;;;;5090795;28;20205;-68
2023/07/31 09:47:53;;;;;;;0.00;0.00;;;25.10;88.20;;;;;;5091222;28;20180;-68
2023/07/31 09:50:24;;;;;;;0.10;0.10;;;25.30;87.00;;;;;;5091051;28;20660;-67
2023/07/31 09:52:51;;;;;;;0.00;0.00;;;25.00;85.80;;;;;;5091068;28;20183;-67
2023/07/31 09:55:18;;;;;;;0.00;0.00;;;24.90;87.80;;;;;;5091097;28;20191;-67
2023/07/31 09:57:49;;;;;;;0.00;0.00;;;24.90;87.40;;;;;;5091044;28;20208;-67
2023/07/31 10:00:17;;;;;;;0.00;0.00;;;25.10;88.70;;;;;;5091062;28;20222;-67
2023/07/31 10:02:46;;;;;;;0.00;0.00;;;25.60;86.40;;;;;;5091005;28;20172;-68
2023/07/31 10:05:15;;;;;;;0.00;0.00;;;25.80;83.40;;;;;;5090886;28;20204;-68
2023/07/31 10:07:45;;;;;;;0.00;0.00;;;26.00;84.20;;;;;;5091095;28;20179;-68
2023/07/31 10:10:12;;;;;;;0.00;0.00;;;26.20;83.00;;;;;;5090867;28;20173;-68
2023/07/31 10:12:38;;;;;;;0.00;0.00;;;26.60;81.50;;;;;;5089786;28;20183;-68
2023/07/31 10:15:05;;;;;;;0.00;0.00;;;26.80;78.60;;;;;;5090866;28;20259;-68
2023/07/31 10:17:33;;;;;;;0.00;0.00;;;26.50;78.50;;;;;;5090878;28;20622;-68
2023/07/31 10:20:01;;;;;;;0.00;0.00;;;26.40;79.60;;;;;;5090984;28;20553;-68
2023/07/31 10:22:26;;;;;;;0.00;0.00;;;26.30;79.20;;;;;;5093466;28;20292;-68
2023/07/31 10:24:54;;;;;;;0.00;0.00;;;26.00;78.80;;;;;;5094468;28;20259;-68
2023/07/31 10:27:19;;;;;;;0.00;0.00;;;25.90;79.40;;;;;;5094379;28;20179;-68
2023/07/31 10:29:47;;;;;;;0.10;0.10;;;25.50;77.90;;;;;;5093251;28;20184;-67
2023/07/31 10:32:14;;;;;;;0.00;0.00;;;25.40;80.00;;;;;;5094246;28;20639;-68
2023/07/31 10:34:41;;;;;;;0.00;0.00;;;25.20;80.50;;;;;;5094486;28;20271;-68
2023/07/31 10:37:35;;;;;;;0.00;0.00;;;25.50;81.50;;;;;;5094224;28;20176;-68
2023/07/31 10:40:05;;;;;;;0.00;0.00;;;25.80;78.90;;;;;;5094204;28;20566;-67
2023/07/31 10:42:36;;;;;;;0.00;0.00;;;25.90;79.50;;;;;;5092803;28;20176;-67
2023/07/31 10:45:07;;;;;;;0.00;0.00;;;25.70;78.80;;;;;;5094058;28;20176;-68
2023/07/31 10:47:46;;;;;;;0.00;0.00;;;25.20;79.20;;;;;;5092858;28;20574;-68
2023/07/31 10:50:19;;;;;;;0.00;0.00;;;25.00;80.80;;;;;;5094011;28;20183;-67
2023/07/31 10:52:49;;;;;;;0.03;0.03;;;24.90;81.70;;;;;;5094116;28;20226;-67
2023/07/31 10:55:41;;;;;;;0.00;0.00;;;25.00;81.30;;;;;;5094006;28;20210;-68
2023/07/31 10:58:09;;;;;;;0.00;0.00;;;25.10;81.40;;;;;;5088114;28;20231;-68
2023/07/31 11:00:39;;;;;;;0.00;0.00;;;25.10;81.20;;;;;;5093964;28;20164;-68
2023/07/31 11:03:20;;;;;;;0.00;0.00;;;24.90;80.80;;;;;;5094005;28;20183;-68
2023/07/31 11:05:48;;;;;;;0.10;0.10;;;24.80;81.00;;;;;;5093798;28;20221;-68
2023/07/31 11:08:18;;;;;;;0.00;0.00;;;25.00;83.20;;;;;;5093709;28;20180;-67
2023/07/31 11:10:45;;;;;;;0.00;0.00;;;25.40;84.50;;;;;;5093655;28;20681;-68
2023/07/31 11:13:11;;;;;;;0.10;0.10;;;25.70;82.60;;;;;;5093447;28;20180;-68
2023/07/31 11:15:36;;;;;;;0.00;0.00;;;26.10;81.50;;;;;;5093750;28;20180;-67
2023/07/31 11:18:03;;;;;;;0.00;0.00;;;25.80;78.90;;;;;;5093458;28;20682;-67
2023/07/31 11:20:32;;;;;;;0.00;0.00;;;25.40;79.40;;;;;;5093424;28;20199;-67
2023/07/31 11:23:00;;;;;;;0.00;0.00;;;24.90;80.50;;;;;;5093310;28;20180;-67
2023/07/31 11:25:26;;;;;;;0.00;0.00;;;24.70;80.60;;;;;;5093302;28;20180;-67
2023/07/31 11:27:53;;;;;;;0.00;0.00;;;24.60;82.60;;;;;;5093183;28;20764;-67
2023/07/31 11:30:20;;;;;;;0.00;0.00;;;24.70;83.30;;;;;;5093372;28;20285;-67
2023/07/31 11:32:45;;;;;;;0.00;0.00;;;24.70;83.50;;;;;;5090835;28;20264;-68
2023/07/31 11:35:14;;;;;;;0.00;0.00;;;24.90;84.20;;;;;;5093091;28;20579;-67
2023/07/31 11:37:41;;;;;;;0.00;0.00;;;24.80;82.70;;;;;;5093089;28;20223;-67
2023/07/31 11:40:07;;;;;;;0.00;0.00;;;24.60;82.50;;;;;;5093150;28;20191;-67
2023/07/31 11:42:36;;;;;;;0.00;0.00;;;24.50;83.50;;;;;;5093038;28;20168;-68
2023/07/31 11:45:06;;;;;;;0.00;0.00;;;24.60;84.70;;;;;;5091663;28;20179;-67
2023/07/31 11:47:34;;;;;;;0.00;0.00;;;24.40;83.00;;;;;;5092865;28;20173;-68
2023/07/31 11:50:01;;;;;;;0.00;0.00;;;24.30;83.50;;;;;;5092921;28;20180;-67
2023/07/31 11:52:29;;;;;;;0.00;0.00;;;24.10;84.90;;;;;;5092825;28;20176;-68
2023/07/31 11:54:55;;;;;;;0.00;0.00;;;24.10;84.40;;;;;;5091554;28;20173;-68
2023/07/31 11:57:22;;;;;;;0.00;0.00;;;24.20;85.10;;;;;;5092630;28;20180;-67
2023/07/31 11:59:48;;;;;;;0.65;0.32;;;24.20;85.70;;;;;;5092538;28;20180;-68
2023/07/31 12:02:14;;;;;;;0.00;0.00;;;24.00;85.50;;;;;;5092637;28;20204;-68
2023/07/31 12:04:40;;;;;;;0.00;0.00;;;24.00;85.40;;;;;;5092738;28;20200;-68
2023/07/31 12:07:06;;;;;;;0.00;0.00;;;23.80;84.90;;;;;;5092578;28;20211;-67
2023/07/31 12:09:31;;;;;;;0.00;0.00;;;23.90;85.20;;;;;;5092475;28;20521;-68
2023/07/31 12:11:57;;;;;;;0.00;0.00;;;24.00;84.40;;;;;;5091277;28;20218;-68
2023/07/31 12:14:30;;;;;;;0.00;0.00;;;24.20;85.60;;;;;;5092487;28;20639;-67
2023/07/31 12:17:00;;;;;;;0.00;0.00;;;24.30;85.60;;;;;;5092428;28;20663;-67
2023/07/31 12:19:29;;;;;;;0.00;0.00;;;24.50;85.50;;;;;;5092449;28;20222;-67
2023/07/31 12:21:58;;;;;;;0.00;0.00;;;24.50;83.30;;;;;;5092536;28;20241;-67
2023/07/31 12:24:25;;;;;;;0.55;0.10;;;24.60;84.40;;;;;;5092202;28;20218;-68
2023/07/31 12:26:52;;;;;;;0.00;0.00;;;24.60;84.70;;;;;;5092164;28;20624;-67
2023/07/31 12:29:18;;;;;;;0.00;0.00;;;24.80;83.10;;;;;;5092074;28;20219;-67
2023/07/31 12:31:43;;;;;;;0.00;0.00;;;25.20;84.60;;;;;;5092265;28;20182;-68
2023/07/31 12:34:17;;;;;;;0.00;0.00;;;25.20;81.60;;;;;;5092097;28;20263;-67
2023/07/31 12:36:43;;;;;;;0.00;0.00;;;25.20;81.10;;;;;;5092158;28;20172;-67
2023/07/31 12:39:09;;;;;;;0.00;0.00;;;25.20;81.60;;;;;;5091815;28;20211;-68
2023/07/31 12:41:35;;;;;;;0.15;0.13;;;25.10;82.00;;;;;;5091924;28;20179;-68
2023/07/31 12:44:00;;;;;;;0.00;0.00;;;25.10;81.50;;;;;;5091439;28;20531;-67
2023/07/31 12:46:26;;;;;;;0.00;0.00;;;25.00;82.30;;;;;;5090478;28;20195;-68